createdAt,value
2019-05-30T00:01:54.209Z,78.71
2019-05-30T00:04:23.230Z,78.89
2019-05-30T00:06:52.293Z,79.25
2019-05-30T00:09:21.461Z,79.42
2019-05-30T00:11:50.335Z,79.73
2019-05-30T00:14:19.285Z,79.93
2019-05-30T00:16:48.446Z,80.15
2019-05-30T00:19:17.641Z,80.32
2019-05-30T00:21:46.846Z,80.31
2019-05-30T00:24:16.053Z,80.05
2019-05-30T00:26:44.895Z,79.63
2019-05-30T00:29:13.702Z,79.33
2019-05-30T00:31:42.649Z,79.04
2019-05-30T00:34:11.614Z,78.74
2019-05-30T00:36:40.795Z,78.41
2019-05-30T00:39:10.033Z,78.31
2019-05-30T00:41:39.330Z,78.30
2019-05-30T00:44:08.197Z,78.29
2019-05-30T00:46:36.983Z,78.07
2019-05-30T00:49:06.681Z,77.86
2019-05-30T00:51:36.319Z,77.83
2019-05-30T00:54:05.269Z,77.66
2019-05-30T00:56:34.487Z,77.47
2019-05-30T00:59:03.376Z,77.41
2019-05-30T01:01:32.880Z,77.43
2019-05-30T01:04:02.840Z,77.27
2019-05-30T01:06:32.129Z,76.97
2019-05-30T01:09:01.397Z,76.76
2019-05-30T01:11:30.362Z,76.87
2019-05-30T01:13:59.497Z,76.85
2019-05-30T01:16:28.775Z,77.04
2019-05-30T01:18:58.952Z,77.21
2019-05-30T01:21:27.997Z,77.05
2019-05-30T01:23:57.305Z,76.93
2019-05-30T01:26:26.082Z,77.09
2019-05-30T01:28:55.233Z,77.19
2019-05-30T01:31:24.488Z,77.22
2019-05-30T01:33:53.859Z,77.55
2019-05-30T01:36:22.609Z,77.71
2019-05-30T01:38:51.796Z,77.73
2019-05-30T01:41:20.860Z,77.91
2019-05-30T01:43:50.094Z,78.17
2019-05-30T01:46:19.013Z,78.24
2019-05-30T01:48:47.937Z,78.14
2019-05-30T01:51:17.269Z,77.71
2019-05-30T01:53:46.144Z,78.00
2019-05-30T01:56:15.325Z,77.99
2019-05-30T01:58:44.178Z,77.75
2019-05-30T02:01:23.695Z,77.35
2019-05-30T02:03:43.702Z,77.27
2019-05-30T02:06:12.691Z,77.08
2019-05-30T02:08:41.545Z,76.53
2019-05-30T02:11:10.413Z,76.53
2019-05-30T02:13:39.346Z,76.59
2019-05-30T02:16:08.315Z,76.44
2019-05-30T02:18:37.402Z,75.99
2019-05-30T02:21:06.294Z,75.57
2019-05-30T02:23:35.475Z,75.31
2019-05-30T02:26:04.348Z,75.26
2019-05-30T02:28:33.263Z,75.02
2019-05-30T02:31:02.996Z,74.78
2019-05-30T02:33:32.416Z,74.50
2019-05-30T02:36:04.059Z,74.18
2019-05-30T02:38:31.921Z,73.97
2019-05-30T02:41:01.366Z,73.97
2019-05-30T02:43:31.811Z,74.05
2019-05-30T02:46:01.142Z,73.99
2019-05-30T02:48:30.144Z,73.76
2019-05-30T02:51:01.050Z,74.06
2019-05-30T02:53:29.915Z,74.41
2019-05-30T02:55:58.784Z,74.46
2019-05-30T02:58:27.939Z,74.46
2019-05-30T03:00:56.922Z,74.48
2019-05-30T03:03:25.683Z,74.38
2019-05-30T03:05:54.743Z,73.56
2019-05-30T03:08:23.950Z,73.58
2019-05-30T03:10:53.315Z,73.39
2019-05-30T03:13:22.223Z,73.24
2019-05-30T03:15:51.346Z,73.44
2019-05-30T03:18:20.183Z,73.55
2019-05-30T03:20:49.252Z,73.17
2019-05-30T03:23:18.107Z,72.83
2019-05-30T03:25:47.280Z,72.80
2019-05-30T03:28:16.545Z,72.85
2019-05-30T03:30:46.155Z,72.89
2019-05-30T03:33:32.940Z,72.64
2019-05-30T03:35:46.214Z,72.67
2019-05-30T03:38:15.703Z,72.73
2019-05-30T03:40:44.774Z,72.88
2019-05-30T03:43:15.658Z,73.02
2019-05-30T03:45:44.984Z,72.72
2019-05-30T03:48:16.557Z,72.94
2019-05-30T03:50:48.702Z,72.55
2019-05-30T03:53:17.655Z,72.75
2019-05-30T03:55:50.594Z,73.00
2019-05-30T03:58:49.302Z,72.62
2019-05-30T04:01:23.669Z,72.75
2019-05-30T04:04:12.170Z,72.66
2019-05-30T04:06:45.716Z,72.34
2019-05-30T04:09:21.967Z,72.24
2019-05-30T04:12:14.918Z,71.92
2019-05-30T04:14:45.614Z,71.67
2019-05-30T04:17:17.700Z,71.83
2019-05-30T04:19:46.911Z,71.93
2019-05-30T04:22:16.130Z,72.27
2019-05-30T04:24:45.321Z,71.82
2019-05-30T04:27:18.563Z,71.83
2019-05-30T04:29:47.648Z,72.09
2019-05-30T04:32:16.721Z,72.38
2019-05-30T04:34:46.071Z,73.09
2019-05-30T04:37:17.163Z,72.66
2019-05-30T04:39:46.468Z,72.85
2019-05-30T04:42:17.807Z,72.95
2019-05-30T04:44:46.587Z,73.73
2019-05-30T04:47:18.421Z,74.05
2019-05-30T04:49:48.275Z,74.24
2019-05-30T04:52:21.094Z,73.68
2019-05-30T04:54:48.093Z,73.74
2019-05-30T04:57:17.400Z,73.75
2019-05-30T04:59:47.914Z,73.40
2019-05-30T05:02:18.828Z,73.55
2019-05-30T05:04:48.071Z,73.08
2019-05-30T05:07:17.810Z,72.47
2019-05-30T05:09:46.862Z,71.95
2019-05-30T05:12:16.110Z,72.06
2019-05-30T05:14:45.181Z,71.72
2019-05-30T05:17:14.733Z,72.09
2019-05-30T05:19:44.167Z,71.91
2019-05-30T05:22:12.927Z,71.92
2019-05-30T05:24:42.188Z,71.12
2019-05-30T05:27:11.376Z,71.13
2019-05-30T05:29:40.249Z,71.01
2019-05-30T05:32:09.178Z,70.66
2019-05-30T05:34:38.378Z,70.37
2019-05-30T05:37:07.234Z,70.20
2019-05-30T05:39:36.154Z,70.23
2019-05-30T05:42:05.052Z,69.81
2019-05-30T05:44:33.939Z,69.93
2019-05-30T05:47:03.126Z,70.11
2019-05-30T05:49:31.994Z,70.32
2019-05-30T05:52:01.187Z,70.03
2019-05-30T05:54:30.043Z,70.15
2019-05-30T05:56:59.668Z,70.00
2019-05-30T05:59:29.305Z,69.25
2019-05-30T06:01:58.691Z,69.32
2019-05-30T06:04:27.616Z,68.89
2019-05-30T06:06:56.889Z,68.21
2019-05-30T06:09:25.850Z,67.69
2019-05-30T06:11:54.774Z,67.62
2019-05-30T06:14:24.182Z,67.31
2019-05-30T06:16:55.929Z,66.71
2019-05-30T06:19:25.333Z,67.21
2019-05-30T06:21:54.773Z,67.36
2019-05-30T06:24:23.925Z,67.07
2019-05-30T06:26:53.216Z,68.23
2019-05-30T06:29:22.222Z,68.72
2019-05-30T06:31:51.726Z,69.30
2019-05-30T06:34:36.008Z,69.45
2019-05-30T06:36:51.957Z,69.94
2019-05-30T06:39:21.291Z,69.90
2019-05-30T06:41:50.414Z,69.63
2019-05-30T06:44:19.841Z,69.37
2019-05-30T06:46:48.827Z,69.42
2019-05-30T06:49:17.760Z,70.59
2019-05-30T06:51:46.669Z,71.58
2019-05-30T06:54:15.576Z,71.81
2019-05-30T06:56:44.972Z,72.61
2019-05-30T06:59:14.058Z,71.98
2019-05-30T07:01:42.922Z,71.56
2019-05-30T07:04:12.230Z,71.67
2019-05-30T07:06:42.022Z,71.97
2019-05-30T07:09:11.163Z,72.28
2019-05-30T07:11:40.439Z,72.45
2019-05-30T07:14:09.471Z,71.96
2019-05-30T07:16:38.682Z,70.89
2019-05-30T07:19:07.536Z,70.34
2019-05-30T07:21:36.610Z,69.56
2019-05-30T07:24:05.910Z,69.31
2019-05-30T07:26:34.886Z,69.13
2019-05-30T07:29:03.925Z,69.06
2019-05-30T07:31:34.269Z,68.79
2019-05-30T07:34:03.672Z,69.10
2019-05-30T07:36:32.600Z,68.89
2019-05-30T07:39:01.516Z,68.32
2019-05-30T07:41:30.640Z,68.22
2019-05-30T07:43:59.593Z,68.47
2019-05-30T07:46:28.975Z,68.37
2019-05-30T07:48:58.118Z,68.54
2019-05-30T07:51:26.975Z,68.51
2019-05-30T07:53:56.689Z,68.23
2019-05-30T07:56:26.934Z,68.45
2019-05-30T07:58:56.042Z,68.66
2019-05-30T08:01:26.257Z,68.61
2019-05-30T08:03:55.680Z,68.59
2019-05-30T08:06:25.575Z,68.56
2019-05-30T08:08:54.728Z,68.51
2019-05-30T08:11:23.934Z,68.65
2019-05-30T08:13:53.124Z,68.85
2019-05-30T08:16:22.757Z,68.90
2019-05-30T08:18:51.753Z,68.62
2019-05-30T08:21:20.732Z,68.35
2019-05-30T08:23:49.616Z,68.00
2019-05-30T08:26:18.999Z,67.69
2019-05-30T08:28:47.900Z,67.38
2019-05-30T08:31:17.031Z,66.86
2019-05-30T08:33:47.468Z,67.27
2019-05-30T08:36:16.540Z,67.53
2019-05-30T08:38:48.091Z,67.33
2019-05-30T08:41:16.649Z,67.81
2019-05-30T08:43:46.088Z,68.01
2019-05-30T08:46:15.375Z,67.52
2019-05-30T08:48:44.345Z,67.39
2019-05-30T08:51:13.553Z,67.85
2019-05-30T08:53:42.704Z,68.32
2019-05-30T08:56:11.607Z,68.70
2019-05-30T08:58:41.009Z,68.48
2019-05-30T09:01:10.547Z,68.31
2019-05-30T09:03:40.166Z,68.53
2019-05-30T09:06:09.433Z,68.34
2019-05-30T09:08:38.592Z,68.04
2019-05-30T09:11:07.705Z,66.70
2019-05-30T09:13:37.832Z,66.39
2019-05-30T09:16:07.245Z,66.21
2019-05-30T09:18:37.987Z,65.85
2019-05-30T09:21:07.316Z,65.41
2019-05-30T09:23:38.366Z,65.63
2019-05-30T09:26:07.252Z,65.12
2019-05-30T09:28:36.425Z,63.77
2019-05-30T09:31:06.043Z,62.44
2019-05-30T09:33:35.022Z,63.10
2019-05-30T09:36:12.619Z,63.09
2019-05-30T09:38:34.965Z,63.34
2019-05-30T09:41:03.796Z,63.08
2019-05-30T09:43:33.065Z,63.26
2019-05-30T09:46:02.278Z,64.38
2019-05-30T09:48:31.435Z,64.00
2019-05-30T09:51:00.445Z,64.65
2019-05-30T09:53:29.412Z,65.26
2019-05-30T09:55:58.363Z,65.27
2019-05-30T09:58:27.616Z,65.64
2019-05-30T10:00:56.460Z,66.19
2019-05-30T10:03:25.417Z,67.00
2019-05-30T10:05:54.279Z,66.34
2019-05-30T10:08:23.515Z,65.71
2019-05-30T10:10:53.496Z,65.41
2019-05-30T10:13:22.488Z,64.70
2019-05-30T10:15:52.493Z,64.61
2019-05-30T10:18:21.498Z,64.74
2019-05-30T10:20:51.962Z,64.78
2019-05-30T10:23:21.375Z,65.26
2019-05-30T10:25:51.224Z,65.60
2019-05-30T10:28:20.085Z,66.36
2019-05-30T10:30:53.890Z,66.36
2019-05-30T10:33:20.126Z,66.35
2019-05-30T10:35:49.265Z,66.43
2019-05-30T10:38:20.077Z,66.71
2019-05-30T10:40:50.375Z,66.82
2019-05-30T10:43:19.651Z,66.48
2019-05-30T10:45:49.471Z,66.27
2019-05-30T10:48:20.922Z,66.16
2019-05-30T10:50:50.481Z,66.48
2019-05-30T10:53:19.447Z,66.21
2019-05-30T10:55:50.030Z,66.15
2019-05-30T10:58:19.091Z,65.89
2019-05-30T11:00:52.989Z,66.04
2019-05-30T11:03:22.776Z,65.35
2019-05-30T11:06:26.080Z,65.16
2019-05-30T11:08:57.150Z,65.68
2019-05-30T11:11:26.306Z,65.57
2019-05-30T11:13:55.458Z,65.52
2019-05-30T11:16:24.288Z,64.62
2019-05-30T11:18:54.607Z,65.03
2019-05-30T11:21:24.346Z,64.83
2019-05-30T11:23:54.375Z,64.59
2019-05-30T11:26:23.353Z,64.30
2019-05-30T11:28:52.696Z,64.49
2019-05-30T11:31:21.644Z,64.46
2019-05-30T11:33:50.843Z,64.01
2019-05-30T11:36:20.013Z,64.28
2019-05-30T11:38:49.153Z,65.06
2019-05-30T11:41:18.504Z,64.91
2019-05-30T11:43:47.395Z,65.15
2019-05-30T11:46:16.323Z,65.13
2019-05-30T11:48:45.506Z,65.82
2019-05-30T11:51:15.250Z,65.78
2019-05-30T11:53:44.388Z,66.11
2019-05-30T11:56:13.243Z,66.69
2019-05-30T11:58:42.286Z,66.63
2019-05-30T12:01:11.142Z,66.63
2019-05-30T12:03:40.077Z,65.99
2019-05-30T12:06:08.994Z,65.71
2019-05-30T12:08:38.258Z,66.19
2019-05-30T12:11:07.101Z,65.86
2019-05-30T12:13:36.289Z,65.07
2019-05-30T12:16:05.251Z,64.81
2019-05-30T12:18:34.098Z,64.85
2019-05-30T12:21:03.060Z,64.34
2019-05-30T12:23:32.209Z,63.55
2019-05-30T12:26:02.166Z,63.05
2019-05-30T12:28:31.449Z,62.94
2019-05-30T12:31:04.519Z,62.04
2019-05-30T12:33:30.962Z,62.54
2019-05-30T12:36:00.644Z,63.24
2019-05-30T12:38:29.670Z,63.95
2019-05-30T12:40:58.816Z,64.53
2019-05-30T12:43:27.830Z,66.44
2019-05-30T12:45:57.344Z,67.17
2019-05-30T12:48:26.130Z,67.29
2019-05-30T12:50:55.222Z,68.14
2019-05-30T12:53:24.150Z,68.62
2019-05-30T12:55:54.273Z,69.70
2019-05-30T12:58:23.215Z,70.17
2019-05-30T13:00:52.083Z,70.58
2019-05-30T13:03:21.031Z,70.66
2019-05-30T13:05:50.100Z,70.95
2019-05-30T13:08:21.951Z,71.26
2019-05-30T13:10:49.865Z,71.58
2019-05-30T13:13:19.041Z,71.68
2019-05-30T13:15:48.011Z,72.05
2019-05-30T13:18:17.136Z,71.59
2019-05-30T13:20:46.427Z,71.98
2019-05-30T13:23:15.244Z,72.11
2019-05-30T13:25:44.415Z,72.25
2019-05-30T13:28:13.387Z,72.88
2019-05-30T13:30:42.349Z,73.12
2019-05-30T13:33:11.307Z,73.00
2019-05-30T13:35:40.221Z,72.89
2019-05-30T13:38:09.272Z,72.70
2019-05-30T13:40:38.173Z,72.78
2019-05-30T13:43:08.037Z,72.99
2019-05-30T13:45:37.275Z,72.86
2019-05-30T13:48:06.615Z,73.29
2019-05-30T13:50:35.824Z,73.83
2019-05-30T13:53:05.379Z,73.96
2019-05-30T13:55:34.328Z,74.23
2019-05-30T13:58:03.652Z,74.45
2019-05-30T14:00:32.550Z,74.19
2019-05-30T14:03:02.339Z,74.12
2019-05-30T14:05:31.481Z,74.36
2019-05-30T14:08:00.354Z,74.66
2019-05-30T14:10:29.285Z,74.85
2019-05-30T14:12:58.496Z,74.99
2019-05-30T14:15:27.753Z,75.09
2019-05-30T14:17:58.563Z,75.28
2019-05-30T14:20:28.202Z,75.34
2019-05-30T14:22:57.492Z,75.70
2019-05-30T14:25:26.361Z,75.50
2019-05-30T14:27:55.133Z,75.74
2019-05-30T14:30:24.503Z,75.82
2019-05-30T14:32:53.871Z,75.92
2019-05-30T14:35:22.942Z,75.79
2019-05-30T14:37:51.989Z,76.08
2019-05-30T14:40:20.942Z,76.12
2019-05-30T14:42:50.892Z,76.20
2019-05-30T14:45:20.328Z,75.94
2019-05-30T14:47:49.480Z,76.19
2019-05-30T14:50:18.423Z,76.31
2019-05-30T14:52:48.550Z,76.24
2019-05-30T14:55:18.331Z,76.30
2019-05-30T14:57:47.814Z,76.48
2019-05-30T15:00:18.022Z,76.36
2019-05-30T15:02:46.975Z,75.96
2019-05-30T15:05:16.681Z,75.92
2019-05-30T15:07:45.723Z,75.93
2019-05-30T15:10:15.046Z,75.93
2019-05-30T15:12:43.941Z,75.94
2019-05-30T15:15:17.121Z,76.04
2019-05-30T15:17:45.951Z,75.89
2019-05-30T15:20:15.466Z,75.82
2019-05-30T15:22:44.389Z,74.60
2019-05-30T15:25:16.451Z,73.54
2019-05-30T15:27:45.518Z,73.17
2019-05-30T15:30:14.888Z,72.61
2019-05-30T15:32:44.162Z,72.20
2019-05-30T15:35:15.704Z,71.69
2019-05-30T15:37:44.878Z,71.09
2019-05-30T15:40:15.101Z,70.84
2019-05-30T15:42:44.351Z,71.04
2019-05-30T15:45:16.144Z,71.02
2019-05-30T15:47:45.177Z,70.66
2019-05-30T15:50:15.359Z,70.74
2019-05-30T15:52:45.211Z,70.51
2019-05-30T15:55:15.277Z,70.20
2019-05-30T15:57:44.477Z,69.74
2019-05-30T16:00:14.297Z,69.64
2019-05-30T16:02:43.160Z,69.47
2019-05-30T16:05:14.588Z,69.16
2019-05-30T16:07:43.627Z,68.47
2019-05-30T16:10:12.918Z,68.51
2019-05-30T16:12:41.780Z,68.27
2019-05-30T16:15:11.831Z,68.21
2019-05-30T16:17:40.626Z,68.74
2019-05-30T16:20:09.575Z,68.86
2019-05-30T16:22:38.561Z,69.05
2019-05-30T16:25:08.795Z,69.27
2019-05-30T16:27:37.965Z,69.06
2019-05-30T16:30:08.301Z,69.00
2019-05-30T16:32:37.805Z,69.74
2019-05-30T16:35:07.836Z,69.57
2019-05-30T16:37:36.816Z,69.74
2019-05-30T16:40:07.060Z,70.15
2019-05-30T16:42:36.121Z,70.82
2019-05-30T16:45:05.814Z,71.26
2019-05-30T16:47:34.718Z,71.58
2019-05-30T16:50:03.694Z,71.63
2019-05-30T16:52:32.679Z,71.96
2019-05-30T16:55:01.520Z,72.26
2019-05-30T16:57:30.395Z,72.48
2019-05-30T16:59:59.526Z,72.47
2019-05-30T17:02:28.419Z,71.99
2019-05-30T17:04:57.578Z,71.76
2019-05-30T17:07:27.630Z,71.76
2019-05-30T17:09:56.821Z,71.89
2019-05-30T17:12:25.825Z,72.36
2019-05-30T17:14:55.000Z,72.75
2019-05-30T17:17:24.262Z,73.04
2019-05-30T17:19:53.100Z,73.33
2019-05-30T17:22:22.790Z,73.31
2019-05-30T17:24:54.467Z,73.33
2019-05-30T17:27:22.696Z,73.29
2019-05-30T17:29:51.906Z,73.23
2019-05-30T17:32:21.759Z,73.16
2019-05-30T17:34:50.761Z,73.35
2019-05-30T17:37:20.312Z,73.50
2019-05-30T17:39:49.434Z,73.86
2019-05-30T17:42:18.651Z,74.05
2019-05-30T17:44:47.867Z,74.25
2019-05-30T17:47:16.745Z,74.25
2019-05-30T17:49:45.898Z,73.99
2019-05-30T17:52:15.003Z,74.36
2019-05-30T17:54:43.844Z,74.36
2019-05-30T17:57:12.736Z,74.29
2019-05-30T17:59:41.568Z,74.49
2019-05-30T18:02:10.576Z,74.64
2019-05-30T18:04:39.460Z,74.89
2019-05-30T18:07:08.457Z,75.06
2019-05-30T18:09:37.306Z,75.21
2019-05-30T18:12:06.250Z,75.34
2019-05-30T18:14:35.428Z,75.53
2019-05-30T18:17:04.361Z,75.79
2019-05-30T18:19:33.241Z,76.08
2019-05-30T18:22:02.120Z,76.34
2019-05-30T18:24:31.788Z,76.34
2019-05-30T18:27:00.743Z,76.71
2019-05-30T18:29:30.222Z,76.95
2019-05-30T18:31:59.085Z,77.20
2019-05-30T18:34:28.447Z,77.39
2019-05-30T18:36:57.635Z,77.56
2019-05-30T18:39:26.716Z,77.74
2019-05-30T18:41:56.004Z,77.87
2019-05-30T18:44:28.831Z,78.06
2019-05-30T18:46:56.456Z,78.12
2019-05-30T18:49:27.056Z,78.06
2019-05-30T18:51:56.868Z,78.14
2019-05-30T18:54:26.564Z,78.18
2019-05-30T18:56:55.876Z,78.29
2019-05-30T18:59:24.974Z,78.49
2019-05-30T19:01:53.965Z,78.55
2019-05-30T19:04:23.052Z,78.70
2019-05-30T19:06:51.880Z,78.80
2019-05-30T19:09:20.741Z,78.80
2019-05-30T19:11:49.607Z,78.98
2019-05-30T19:14:18.755Z,79.11
2019-05-30T19:16:47.585Z,79.17
2019-05-30T19:19:16.524Z,79.27
2019-05-30T19:21:45.715Z,79.46
2019-05-30T19:25:50.292Z,79.58
2019-05-30T19:26:45.751Z,79.62
2019-05-30T19:29:14.667Z,79.54
2019-05-30T19:31:43.584Z,79.67
2019-05-30T19:34:12.533Z,79.75
2019-05-30T19:36:41.474Z,79.91
2019-05-30T19:39:10.395Z,79.97
2019-05-30T19:41:52.615Z,80.06
2019-05-30T19:44:09.950Z,80.26
2019-05-30T19:46:38.799Z,80.38
2019-05-30T19:49:07.672Z,80.46
2019-05-30T19:51:37.108Z,80.63
2019-05-30T19:54:06.423Z,80.83
2019-05-30T19:56:38.776Z,80.96
2019-05-30T19:59:06.359Z,81.20
2019-05-30T20:01:35.864Z,81.45
2019-05-30T20:04:04.756Z,81.59
2019-05-30T20:06:34.563Z,81.77
2019-05-30T20:09:03.718Z,81.97
2019-05-30T20:11:33.227Z,82.17
2019-05-30T20:14:02.070Z,82.38
2019-05-30T20:16:31.399Z,82.53
2019-05-30T20:19:00.287Z,82.70
2019-05-30T20:21:29.221Z,82.93
2019-05-30T20:23:59.538Z,83.09
2019-05-30T20:26:28.770Z,83.37
2019-05-30T20:28:58.060Z,83.48
2019-05-30T20:31:27.042Z,83.81
2019-05-30T20:33:57.055Z,83.86
2019-05-30T20:36:25.871Z,84.00
2019-05-30T20:38:55.063Z,84.13
2019-05-30T20:41:24.404Z,84.39
2019-05-30T20:43:53.538Z,84.58
2019-05-30T20:46:23.769Z,84.76
2019-05-30T20:48:52.698Z,84.98
2019-05-30T20:51:21.953Z,85.08
2019-05-30T20:53:50.798Z,85.21
2019-05-30T20:56:20.333Z,85.39
2019-05-30T20:58:49.258Z,85.47
2019-05-30T21:01:18.248Z,85.76
2019-05-30T21:03:47.440Z,85.94
2019-05-30T21:06:16.336Z,86.13
2019-05-30T21:08:47.320Z,86.23
2019-05-30T21:11:16.393Z,86.40
2019-05-30T21:13:46.414Z,86.63
2019-05-30T21:16:16.553Z,86.89
2019-05-30T21:18:46.935Z,86.99
2019-05-30T21:21:15.964Z,87.15
2019-05-30T21:23:45.113Z,87.26
2019-05-30T21:26:13.976Z,87.39
2019-05-30T21:28:43.164Z,87.54
2019-05-30T21:31:11.976Z,87.81
2019-05-30T21:33:41.951Z,87.92
2019-05-30T21:36:11.664Z,88.03
2019-05-30T21:38:41.933Z,88.19
2019-05-30T21:41:11.442Z,88.40
2019-05-30T21:43:40.430Z,88.53
2019-05-30T21:46:09.232Z,88.72
2019-05-30T21:48:38.788Z,88.86
2019-05-30T21:51:08.358Z,89.00
2019-05-30T21:53:37.695Z,89.25
2019-05-30T21:56:06.630Z,89.38
2019-05-30T21:58:35.581Z,89.50
2019-05-30T22:01:36.663Z,89.73
2019-05-30T22:04:06.788Z,89.84
2019-05-30T22:06:35.831Z,89.93
2019-05-30T22:09:07.671Z,89.97
2019-05-30T22:11:37.254Z,90.07
2019-05-30T22:14:06.238Z,90.17
2019-05-30T22:16:35.219Z,90.19
2019-05-30T22:19:04.219Z,90.13
2019-05-30T22:21:33.078Z,89.97
2019-05-30T22:24:02.031Z,89.70
2019-05-30T22:26:30.893Z,89.45
2019-05-30T22:28:59.824Z,89.29
2019-05-30T22:31:28.814Z,88.98
2019-05-30T22:33:57.668Z,88.54
2019-05-30T22:36:26.584Z,88.20
2019-05-30T22:38:55.562Z,88.02
2019-05-30T22:41:24.502Z,87.87
2019-05-30T22:43:53.458Z,87.63
2019-05-30T22:46:22.283Z,87.45
2019-05-30T22:48:52.857Z,87.28
2019-05-30T22:51:22.315Z,87.05
2019-05-30T22:53:51.641Z,87.01
2019-05-30T22:56:20.762Z,86.84
2019-05-30T22:58:50.148Z,86.70
2019-05-30T23:01:19.235Z,86.61
2019-05-30T23:03:49.157Z,86.51
2019-05-30T23:06:18.325Z,86.04
2019-05-30T23:08:48.422Z,85.83
2019-05-30T23:11:17.474Z,85.82
2019-05-30T23:13:47.912Z,85.72
2019-05-30T23:16:16.716Z,85.66
2019-05-30T23:18:46.444Z,85.40
2019-05-30T23:21:15.269Z,85.27
2019-05-30T23:23:44.258Z,85.28
2019-05-30T23:26:14.085Z,85.10
2019-05-30T23:28:42.994Z,84.89
2019-05-30T23:31:11.847Z,84.84
2019-05-30T23:33:40.783Z,84.67
2019-05-30T23:36:09.870Z,84.69
2019-05-30T23:38:38.772Z,84.62
2019-05-30T23:41:07.637Z,84.59
2019-05-30T23:43:36.853Z,84.49
2019-05-30T23:46:05.837Z,84.43
2019-05-30T23:48:34.694Z,84.37
2019-05-30T23:51:03.904Z,84.35
2019-05-30T23:53:32.753Z,84.37
2019-05-30T23:56:01.606Z,84.30
2019-05-30T23:58:30.513Z,84.21
